Time;durP1;ratioP1;P1;durP2;ratioP2;P2;SDS_P1;SDS_P2;PMS_P1;PMS_P2;Temp;Humidity;BMP_temperature;BMP_pressure;BME280_temperature;BME280_humidity;BME280_pressure;Samples;Min_cycle;Max_cycle;Signal;HPM_P1;HPM_P2
2023/09/03 00:00:42;;;;;;;0.75;0.75;;;;;;;;;;5022026;28;20579;-58
2023/09/03 00:03:08;;;;;;;0.80;0.80;;;;;;;;;;5021992;28;20060;-58
2023/09/03 00:05:34;;;;;;;0.50;0.50;;;;;;;;;;5022710;28;20033;-58
2023/09/03 00:08:01;;;;;;;0.60;0.60;;;;;;;;;;5025705;28;20481;-58
2023/09/03 00:10:27;;;;;;;0.75;0.57;;;;;;;;;;5024278;28;20048;-58
2023/09/03 00:12:52;;;;;;;0.80;0.73;;;;;;;;;;5026915;28;20505;-57
2023/09/03 00:15:25;;;;;;;0.60;0.60;;;;;;;;;;5026199;28;20053;-58
2023/09/03 00:17:51;;;;;;;;;;;;;;;;;;5027696;28;20041;-58
2023/09/03 00:20:17;;;;;;;0.40;0.40;;;;;;;;;;5026720;28;19960;-58
2023/09/03 00:22:43;;;;;;;0.50;0.50;;;;;;;;;;5026492;28;20508;-57
2023/09/03 00:25:10;;;;;;;0.40;0.40;;;;;;;;;;5026154;28;20045;-58
2023/09/03 00:27:36;;;;;;;0.30;0.30;;;;;;;;;;5026638;28;20103;-58
2023/09/03 00:30:02;;;;;;;0.50;0.50;;;;;;;;;;5025890;28;20546;-58
2023/09/03 00:32:28;;;;;;;0.60;0.60;;;;;;;;;;5026844;28;20045;-58
2023/09/03 00:34:54;;;;;;;0.40;0.40;;;;;;;;;;5023386;28;20483;-58
2023/09/03 00:37:20;;;;;;;0.60;0.60;;;;;;;;;;5025709;28;20049;-58
2023/09/03 00:39:46;;;;;;;0.70;0.70;;;;;;;;;;5023215;28;20076;-58
2023/09/03 00:42:12;;;;;;;0.68;0.68;;;;;;;;;;5025125;28;20064;-58
2023/09/03 00:44:38;;;;;;;0.50;0.50;;;;;;;;;;5024668;28;20128;-58
2023/09/03 00:47:05;;;;;;;0.55;0.55;;;;;;;;;;5026134;28;20156;-58
2023/09/03 00:49:31;;;;;;;0.40;0.30;;;;;;;;;;5026511;28;20037;-58
2023/09/03 00:51:57;;;;;;;0.60;0.60;;;;;;;;;;5026105;28;20516;-58
2023/09/03 00:54:24;;;;;;;0.57;0.57;;;;;;;;;;5025129;28;20527;-57
2023/09/03 00:56:50;;;;;;;0.40;0.40;;;;;;;;;;5026022;28;20044;-58
2023/09/03 00:59:18;;;;;;;0.43;0.43;;;;;;;;;;5024093;28;20084;-58
2023/09/03 01:01:44;;;;;;;0.40;0.40;;;;;;;;;;5016863;28;20049;-57
2023/09/03 01:04:10;;;;;;;0.40;0.40;;;;;;;;;;5026636;28;20056;-57
2023/09/03 01:06:37;;;;;;;0.82;0.77;;;;;;;;;;5025036;28;20482;-58
2023/09/03 01:09:03;;;;;;;0.30;0.30;;;;;;;;;;5025795;28;20500;-58
2023/09/03 01:11:48;;;;;;;0.50;0.50;;;;;;;;;;5025407;28;20041;-58
2023/09/03 01:14:21;;;;;;;0.50;0.50;;;;;;;;;;5023254;28;20672;-58
2023/09/03 01:17:07;;;;;;;0.47;0.47;;;;;;;;;;5024455;28;20140;-58
2023/09/03 01:19:48;;;;;;;0.63;0.57;;;;;;;;;;5023282;28;20041;-58
2023/09/03 01:22:27;;;;;;;0.50;0.50;;;;;;;;;;5023793;28;20084;-58
2023/09/03 01:25:00;;;;;;;0.40;0.40;;;;;;;;;;5024234;28;20041;-58
2023/09/03 01:27:46;;;;;;;0.60;0.60;;;;;;;;;;5023652;28;20077;-58
2023/09/03 01:30:12;;;;;;;0.50;0.50;;;;;;;;;;5025771;28;20128;-58
2023/09/03 01:32:38;;;;;;;0.65;0.65;;;;;;;;;;5024690;28;20700;-58
2023/09/03 01:35:05;;;;;;;0.50;0.50;;;;;;;;;;5023826;28;20115;-58
2023/09/03 01:37:31;;;;;;;0.90;0.90;;;;;;;;;;5024879;28;20041;-58
2023/09/03 01:39:57;;;;;;;1.35;1.00;;;;;;;;;;5022175;28;20125;-59
2023/09/03 01:42:23;;;;;;;0.68;0.68;;;;;;;;;;5024527;28;20037;-58
2023/09/03 01:44:49;;;;;;;1.08;0.98;;;;;;;;;;5024769;28;20038;-58
2023/09/03 01:47:19;;;;;;;0.70;0.70;;;;;;;;;;5022809;28;20064;-58
2023/09/03 01:49:57;;;;;;;0.80;0.80;;;;;;;;;;5024554;28;20046;-58
2023/09/03 01:52:37;;;;;;;0.70;0.70;;;;;;;;;;5024653;28;20041;-58
2023/09/03 01:55:05;;;;;;;0.47;0.47;;;;;;;;;;5022289;28;20459;-58
2023/09/03 01:57:36;;;;;;;0.60;0.60;;;;;;;;;;5023858;28;20234;-58
2023/09/03 02:00:07;;;;;;;0.57;0.57;;;;;;;;;;5022054;28;20092;-58
2023/09/03 02:02:33;;;;;;;0.38;0.38;;;;;;;;;;5023788;28;20041;-57
2023/09/03 02:05:00;;;;;;;0.47;0.47;;;;;;;;;;5023443;28;20164;-58
2023/09/03 02:07:26;;;;;;;1.15;0.50;;;;;;;;;;5023661;28;20469;-58
2023/09/03 02:09:52;;;;;;;0.30;0.30;;;;;;;;;;5024799;28;20523;-58
2023/09/03 02:12:23;;;;;;;0.60;0.60;;;;;;;;;;5024443;28;20092;-58
2023/09/03 02:14:50;;;;;;;0.50;0.50;;;;;;;;;;5022479;28;20465;-58
2023/09/03 02:17:19;;;;;;;0.82;0.50;;;;;;;;;;5018626;28;20045;-58
2023/09/03 02:19:49;;;;;;;0.50;0.50;;;;;;;;;;5024572;28;20045;-60
2023/09/03 02:22:15;;;;;;;0.45;0.40;;;;;;;;;;5023900;28;20093;-58
2023/09/03 02:24:41;;;;;;;0.52;0.52;;;;;;;;;;5024166;28;20041;-58
2023/09/03 02:27:07;;;;;;;0.50;0.50;;;;;;;;;;5024289;28;20088;-58
2023/09/03 02:29:33;;;;;;;0.88;0.65;;;;;;;;;;5021710;28;20108;-58
2023/09/03 02:31:59;;;;;;;0.38;0.38;;;;;;;;;;5024084;28;20033;-57
2023/09/03 02:34:25;;;;;;;0.60;0.60;;;;;;;;;;5023512;28;20095;-58
2023/09/03 02:36:51;;;;;;;0.40;0.40;;;;;;;;;;5023410;28;20630;-58
2023/09/03 02:39:17;;;;;;;0.40;0.40;;;;;;;;;;5022914;28;20045;-58
2023/09/03 02:41:43;;;;;;;0.40;0.40;;;;;;;;;;5023490;28;20946;-58
2023/09/03 02:44:09;;;;;;;0.57;0.50;;;;;;;;;;5023569;28;20045;-58
2023/09/03 02:46:35;;;;;;;0.65;0.65;;;;;;;;;;5024123;28;20486;-58
2023/09/03 02:49:02;;;;;;;0.90;0.57;;;;;;;;;;5023746;28;20041;-58
2023/09/03 02:51:28;;;;;;;0.52;0.52;;;;;;;;;;5022818;28;20095;-58
2023/09/03 02:53:56;;;;;;;0.60;0.60;;;;;;;;;;5024732;28;20151;-58
2023/09/03 02:56:23;;;;;;;0.77;0.77;;;;;;;;;;5023581;28;20565;-58
2023/09/03 02:58:50;;;;;;;0.60;0.60;;;;;;;;;;5023136;28;20427;-58
2023/09/03 03:01:18;;;;;;;1.20;1.10;;;;;;;;;;5022706;28;20064;-57
2023/09/03 03:03:44;;;;;;;0.60;0.60;;;;;;;;;;5023215;28;20041;-58
2023/09/03 03:06:11;;;;;;;0.60;0.60;;;;;;;;;;5023061;28;20072;-58
2023/09/03 03:08:37;;;;;;;1.05;1.05;;;;;;;;;;5023129;28;20042;-58
2023/09/03 03:11:06;;;;;;;1.00;0.93;;;;;;;;;;5023800;28;20041;-58
2023/09/03 03:13:32;;;;;;;1.10;1.00;;;;;;;;;;5023061;28;20393;-58
2023/09/03 03:16:03;;;;;;;1.13;1.10;;;;;;;;;;5021668;28;20041;-58
2023/09/03 03:18:29;;;;;;;0.80;0.80;;;;;;;;;;5022783;28;20045;-58
2023/09/03 03:21:04;;;;;;;0.85;0.85;;;;;;;;;;5023749;28;20362;-58
2023/09/03 03:23:30;;;;;;;0.70;0.70;;;;;;;;;;5022643;28;20073;-57
2023/09/03 03:25:56;;;;;;;0.75;0.75;;;;;;;;;;5021083;28;20129;-57
2023/09/03 03:28:22;;;;;;;0.80;0.80;;;;;;;;;;5023694;28;20041;-58
2023/09/03 03:30:48;;;;;;;0.60;0.60;;;;;;;;;;5023781;28;20098;-58
2023/09/03 03:33:14;;;;;;;0.73;0.73;;;;;;;;;;5021155;28;20041;-58
2023/09/03 03:35:40;;;;;;;0.70;0.70;;;;;;;;;;5023711;28;20125;-58
2023/09/03 03:38:06;;;;;;;0.95;0.95;;;;;;;;;;5023062;28;20044;-58
2023/09/03 03:40:32;;;;;;;1.15;1.05;;;;;;;;;;5024330;28;20432;-58
2023/09/03 03:42:57;;;;;;;1.05;0.95;;;;;;;;;;5027577;28;20041;-58
2023/09/03 03:45:23;;;;;;;1.35;1.25;;;;;;;;;;5026819;28;20345;-58
2023/09/03 03:47:50;;;;;;;1.25;1.15;;;;;;;;;;5026596;28;20045;-58
2023/09/03 03:50:16;;;;;;;1.33;1.23;;;;;;;;;;5026518;28;20029;-58
2023/09/03 03:52:42;;;;;;;1.00;0.95;;;;;;;;;;5026371;28;20478;-58
2023/09/03 03:55:08;;;;;;;0.80;0.80;;;;;;;;;;5026382;28;20041;-58
2023/09/03 03:57:34;;;;;;;0.88;0.88;;;;;;;;;;5027203;28;20059;-58
2023/09/03 04:00:00;;;;;;;0.88;0.88;;;;;;;;;;5026872;28;20485;-58
2023/09/03 04:02:26;;;;;;;0.95;0.95;;;;;;;;;;5025614;28;20405;-57
2023/09/03 04:04:55;;;;;;;1.17;0.70;;;;;;;;;;5026851;28;20029;-58
2023/09/03 04:07:22;;;;;;;0.75;0.75;;;;;;;;;;5026676;28;20045;-58
2023/09/03 04:09:48;;;;;;;1.15;1.05;;;;;;;;;;5026079;28;20061;-58
2023/09/03 04:12:14;;;;;;;0.90;0.90;;;;;;;;;;5026859;28;20217;-58
2023/09/03 04:14:40;;;;;;;1.10;1.05;;;;;;;;;;5026201;28;20508;-57
2023/09/03 04:17:07;;;;;;;1.20;1.10;;;;;;;;;;5026852;28;20120;-58
2023/09/03 04:19:33;;;;;;;0.70;0.70;;;;;;;;;;5025994;28;20048;-58
2023/09/03 04:22:00;;;;;;;1.23;1.08;;;;;;;;;;5026420;28;20362;-57
2023/09/03 04:24:26;;;;;;;1.30;1.10;;;;;;;;;;5025918;28;20044;-57
2023/09/03 04:26:52;;;;;;;1.13;0.90;;;;;;;;;;5025800;28;20037;-57
2023/09/03 04:29:18;;;;;;;1.20;1.10;;;;;;;;;;5025654;28;20072;-57
2023/09/03 04:31:44;;;;;;;1.00;1.00;;;;;;;;;;5026354;28;20481;-58
2023/09/03 04:34:12;;;;;;;0.93;0.93;;;;;;;;;;5026675;28;20124;-57
2023/09/03 04:36:38;;;;;;;0.85;0.85;;;;;;;;;;5023622;28;20059;-58
2023/09/03 04:39:04;;;;;;;0.75;0.75;;;;;;;;;;5025952;28;20037;-58
2023/09/03 04:41:31;;;;;;;0.60;0.60;;;;;;;;;;5025985;28;20043;-58
2023/09/03 04:44:10;;;;;;;1.10;0.98;;;;;;;;;;5023272;28;20047;-58
2023/09/03 04:46:37;;;;;;;0.80;0.80;;;;;;;;;;5023545;28;20063;-58
2023/09/03 04:49:03;;;;;;;0.90;0.90;;;;;;;;;;5026294;28;20490;-58
2023/09/03 04:51:29;;;;;;;0.90;0.90;;;;;;;;;;5024682;28;20055;-57
2023/09/03 04:53:55;;;;;;;0.90;0.90;;;;;;;;;;5026003;28;20034;-58
2023/09/03 04:56:21;;;;;;;0.77;0.77;;;;;;;;;;5025935;28;20060;-58
2023/09/03 04:58:47;;;;;;;0.85;0.85;;;;;;;;;;5025071;28;20110;-58
2023/09/03 05:01:17;;;;;;;0.70;0.70;;;;;;;;;;5025277;28;20512;-58
2023/09/03 05:03:43;;;;;;;0.70;0.70;;;;;;;;;;5025378;28;20375;-58
2023/09/03 05:06:15;;;;;;;0.70;0.70;;;;;;;;;;5025994;28;20049;-58
2023/09/03 05:08:42;;;;;;;0.80;0.80;;;;;;;;;;5026162;28;20120;-58
2023/09/03 05:11:12;;;;;;;0.60;0.60;;;;;;;;;;5025832;28;20092;-58
2023/09/03 05:13:41;;;;;;;0.80;0.80;;;;;;;;;;5026235;28;20072;-58
2023/09/03 05:16:07;;;;;;;0.70;0.70;;;;;;;;;;5023994;28;20042;-58
2023/09/03 05:18:34;;;;;;;0.52;0.52;;;;;;;;;;5025033;28;20045;-57
2023/09/03 05:21:05;;;;;;;0.45;0.45;;;;;;;;;;5026088;28;20489;-58
2023/09/03 05:23:31;;;;;;;0.70;0.70;;;;;;;;;;5024312;28;20660;-58
2023/09/03 05:25:57;;;;;;;0.40;0.40;;;;;;;;;;5025259;28;20045;-58
2023/09/03 05:28:23;;;;;;;0.57;0.57;;;;;;;;;;5025972;28;20038;-58
2023/09/03 05:30:50;;;;;;;0.57;0.57;;;;;;;;;;5025814;28;20037;-58
2023/09/03 05:33:16;;;;;;;0.43;0.43;;;;;;;;;;5024545;28;20129;-58
2023/09/03 05:35:42;;;;;;;0.43;0.40;;;;;;;;;;5024176;28;20041;-58
2023/09/03 05:38:08;;;;;;;0.60;0.60;;;;;;;;;;5024075;28;20052;-58
2023/09/03 05:40:34;;;;;;;0.35;0.35;;;;;;;;;;5023546;28;20670;-58
2023/09/03 05:43:00;;;;;;;0.47;0.47;;;;;;;;;;5025515;28;20120;-58
2023/09/03 05:45:26;;;;;;;0.50;0.50;;;;;;;;;;5025550;28;20048;-57
2023/09/03 05:47:52;;;;;;;0.30;0.30;;;;;;;;;;5025129;28;20135;-58
2023/09/03 05:50:18;;;;;;;0.25;0.25;;;;;;;;;;5022621;28;20494;-57
2023/09/03 05:52:44;;;;;;;0.30;0.30;;;;;;;;;;5022459;28;20045;-58
2023/09/03 05:55:10;;;;;;;0.30;0.30;;;;;;;;;;5023953;28;20041;-58
2023/09/03 05:57:37;;;;;;;0.20;0.20;;;;;;;;;;5024817;28;20029;-58
2023/09/03 06:00:05;;;;;;;0.30;0.30;;;;;;;;;;5024476;28;20033;-58
2023/09/03 06:02:31;;;;;;;0.28;0.28;;;;;;;;;;5022467;28;20041;-58
2023/09/03 06:04:57;;;;;;;0.40;0.40;;;;;;;;;;5022476;28;20037;-58
2023/09/03 06:07:23;;;;;;;0.20;0.20;;;;;;;;;;5024381;28;20045;-57
2023/09/03 06:09:49;;;;;;;0.50;0.50;;;;;;;;;;5024294;28;20111;-58
2023/09/03 06:12:15;;;;;;;0.30;0.30;;;;;;;;;;5024248;28;20041;-58
2023/09/03 06:14:41;;;;;;;0.35;0.32;;;;;;;;;;5023645;28;20095;-58
2023/09/03 06:17:07;;;;;;;0.30;0.30;;;;;;;;;;5024355;28;20076;-58
2023/09/03 06:19:33;;;;;;;0.20;0.20;;;;;;;;;;5023929;28;20041;-58
2023/09/03 06:21:59;;;;;;;0.30;0.30;;;;;;;;;;5023611;28;20045;-58
2023/09/03 06:24:25;;;;;;;0.22;0.22;;;;;;;;;;5024021;28;20508;-58
2023/09/03 06:26:51;;;;;;;0.28;0.22;;;;;;;;;;5024730;28;20313;-58
2023/09/03 06:29:17;;;;;;;0.32;0.32;;;;;;;;;;5023131;28;20095;-58
2023/09/03 06:31:43;;;;;;;0.40;0.40;;;;;;;;;;5023584;28;20116;-58
2023/09/03 06:34:09;;;;;;;0.20;0.20;;;;;;;;;;5024140;28;20049;-58
2023/09/03 06:36:35;;;;;;;0.22;0.22;;;;;;;;;;5023644;28;20037;-58
2023/09/03 06:39:03;;;;;;;0.40;0.40;;;;;;;;;;5024116;28;20385;-58
2023/09/03 06:41:29;;;;;;;0.30;0.30;;;;;;;;;;5023275;28;20057;-58
2023/09/03 06:43:55;;;;;;;0.30;0.30;;;;;;;;;;5023991;28;20056;-58
2023/09/03 06:46:21;;;;;;;0.30;0.30;;;;;;;;;;5021710;28;20395;-58
2023/09/03 06:48:47;;;;;;;0.28;0.28;;;;;;;;;;5024486;28;20307;-58
2023/09/03 06:51:13;;;;;;;0.30;0.30;;;;;;;;;;5025308;28;20045;-57
2023/09/03 06:53:40;;;;;;;0.20;0.20;;;;;;;;;;5024954;28;20087;-58
2023/09/03 06:56:06;;;;;;;0.20;0.20;;;;;;;;;;5024174;28;20053;-58
2023/09/03 06:58:32;;;;;;;0.10;0.10;;;;;;;;;;5023119;28;20029;-58
2023/09/03 07:00:58;;;;;;;0.38;0.20;;;;;;;;;;5021147;28;20048;-57
2023/09/03 07:03:24;;;;;;;0.30;0.30;;;;;;;;;;5023994;28;20084;-58
2023/09/03 07:05:50;;;;;;;0.40;0.30;;;;;;;;;;5024356;28;20401;-58
2023/09/03 07:08:16;;;;;;;0.75;0.75;;;;;;;;;;5024301;28;20049;-58
2023/09/03 07:10:42;;;;;;;0.70;0.70;;;;;;;;;;5023878;28;20040;-58
2023/09/03 07:13:10;;;;;;;0.70;0.70;;;;;;;;;;5022611;28;20045;-58
2023/09/03 07:15:36;;;;;;;0.90;0.55;;;;;;;;;;5026111;28;20048;-58
2023/09/03 07:18:03;;;;;;;0.40;0.40;;;;;;;;;;5028552;28;20137;-58
2023/09/03 07:20:29;;;;;;;2.33;0.63;;;;;;;;;;5028412;28;20133;-58
2023/09/03 07:22:55;;;;;;;0.40;0.40;;;;;;;;;;5029522;28;20072;-59
2023/09/03 07:25:22;;;;;;;0.47;0.30;;;;;;;;;;5028504;28;20044;-59
2023/09/03 07:27:48;;;;;;;0.40;0.40;;;;;;;;;;5029214;28;20084;-58
2023/09/03 07:30:14;;;;;;;0.50;0.50;;;;;;;;;;5027772;28;20076;-58
2023/09/03 07:32:41;;;;;;;0.73;0.70;;;;;;;;;;5027692;28;20582;-58
2023/09/03 07:35:08;;;;;;;0.50;0.50;;;;;;;;;;5029045;28;20573;-58
2023/09/03 07:37:34;;;;;;;0.68;0.68;;;;;;;;;;5028578;28;20124;-57
2023/09/03 07:40:00;;;;;;;0.50;0.50;;;;;;;;;;5028335;28;20037;-58
2023/09/03 07:42:26;;;;;;;0.60;0.60;;;;;;;;;;5028225;28;20626;-58
2023/09/03 07:44:53;;;;;;;0.65;0.65;;;;;;;;;;5028523;28;20061;-58
2023/09/03 07:47:19;;;;;;;0.57;0.57;;;;;;;;;;5027760;28;20053;-57
2023/09/03 07:49:45;;;;;;;0.80;0.80;;;;;;;;;;5026153;28;20041;-62
2023/09/03 07:52:11;;;;;;;0.80;0.80;;;;;;;;;;5024621;28;20042;-58
2023/09/03 07:54:39;;;;;;;1.40;0.70;;;;;;;;;;5025534;28;20076;-58
2023/09/03 07:57:05;;;;;;;1.10;1.00;;;;;;;;;;5023032;28;20649;-57
2023/09/03 07:59:31;;;;;;;0.93;0.93;;;;;;;;;;5023902;28;20033;-58
2023/09/03 08:02:00;;;;;;;1.27;1.20;;;;;;;;;;5027602;28;20556;-57
2023/09/03 08:04:27;;;;;;;0.90;0.90;;;;;;;;;;5027283;28;20081;-58
2023/09/03 08:06:53;;;;;;;1.10;1.00;;;;;;;;;;5026922;28;20045;-58
2023/09/03 08:09:23;;;;;;;1.13;1.00;;;;;;;;;;5027417;28;20041;-58
2023/09/03 08:11:49;;;;;;;0.40;0.40;;;;;;;;;;5027442;28;20117;-58
2023/09/03 08:14:15;;;;;;;0.60;0.60;;;;;;;;;;5026867;28;20136;-58
2023/09/03 08:16:41;;;;;;;0.75;0.60;;;;;;;;;;5023826;28;20132;-57
2023/09/03 08:19:07;;;;;;;1.38;0.80;;;;;;;;;;5023066;28;20788;-58
2023/09/03 08:21:33;;;;;;;0.93;0.93;;;;;;;;;;5025554;28;20049;-58
2023/09/03 08:23:59;;;;;;;0.70;0.60;;;;;;;;;;5026931;28;20036;-58
2023/09/03 08:26:25;;;;;;;0.60;0.60;;;;;;;;;;5027407;28;20052;-58
2023/09/03 08:28:52;;;;;;;0.50;0.50;;;;;;;;;;5019250;28;20386;-58
2023/09/03 08:31:19;;;;;;;0.60;0.60;;;;;;;;;;5027269;28;20124;-58
2023/09/03 08:33:45;;;;;;;0.60;0.52;;;;;;;;;;5022708;28;20385;-58
2023/09/03 08:36:11;;;;;;;0.68;0.52;;;;;;;;;;5022051;28;20046;-58
2023/09/03 08:38:37;;;;;;;1.02;0.95;;;;;;;;;;5023658;28;20036;-59
2023/09/03 08:41:04;;;;;;;0.98;0.80;;;;;;;;;;5025955;28;20485;-58
2023/09/03 08:43:30;;;;;;;1.00;0.70;;;;;;;;;;5018650;28;20773;-57
2023/09/03 08:46:00;;;;;;;0.70;0.70;;;;;;;;;;5023699;28;20794;-58
2023/09/03 08:48:27;;;;;;;0.65;0.60;;;;;;;;;;5022699;28;20638;-58
2023/09/03 08:50:53;;;;;;;0.70;0.70;;;;;;;;;;5024647;28;20081;-58
2023/09/03 08:53:21;;;;;;;1.02;0.60;;;;;;;;;;5026528;28;20076;-58
2023/09/03 08:55:47;;;;;;;0.50;0.50;;;;;;;;;;5026072;28;20048;-58
2023/09/03 08:58:13;;;;;;;1.65;0.68;;;;;;;;;;5027170;28;20080;-58
2023/09/03 09:00:40;;;;;;;0.70;0.70;;;;;;;;;;5025553;28;20534;-58
2023/09/03 09:03:07;;;;;;;0.80;0.60;;;;;;;;;;5023641;28;20053;-58
2023/09/03 09:05:33;;;;;;;1.00;0.80;;;;;;;;;;5020158;28;20073;-58
2023/09/03 09:08:01;;;;;;;1.35;1.25;;;;;;;;;;5026849;28;20168;-58
2023/09/03 09:10:31;;;;;;;0.80;0.80;;;;;;;;;;5026944;28;20061;-58
2023/09/03 09:13:01;;;;;;;0.70;0.70;;;;;;;;;;5026995;28;20037;-58
2023/09/03 09:15:27;;;;;;;1.05;0.80;;;;;;;;;;5026201;28;20034;-58
2023/09/03 09:17:53;;;;;;;0.70;0.70;;;;;;;;;;5026480;28;20449;-58
2023/09/03 09:20:19;;;;;;;0.50;0.50;;;;;;;;;;5020936;28;20084;-58
2023/09/03 09:22:46;;;;;;;0.85;0.77;;;;;;;;;;5025674;28;20091;-59
2023/09/03 09:25:19;;;;;;;0.50;0.50;;;;;;;;;;5026281;28;20041;-58
2023/09/03 09:27:45;;;;;;;0.90;0.70;;;;;;;;;;5026248;28;20091;-59
2023/09/03 09:30:11;;;;;;;0.52;0.50;;;;;;;;;;5026508;28;20041;-58
2023/09/03 09:32:37;;;;;;;0.68;0.60;;;;;;;;;;5026836;28;20039;-58
2023/09/03 09:35:03;;;;;;;1.30;1.00;;;;;;;;;;5024169;28;20033;-58
2023/09/03 09:37:42;;;;;;;0.80;0.80;;;;;;;;;;5026593;28;20049;-58
2023/09/03 09:40:12;;;;;;;1.02;1.00;;;;;;;;;;5020332;28;20295;-58
2023/09/03 09:42:59;;;;;;;1.27;1.02;;;;;;;;;;5027508;28;20596;-58
2023/09/03 09:45:25;;;;;;;1.20;1.10;;;;;;;;;;5023167;28;20041;-58
2023/09/03 09:48:03;;;;;;;1.50;1.10;;;;;;;;;;5022249;28;20183;-58
2023/09/03 09:50:33;;;;;;;1.45;0.82;;;;;;;;;;5027173;28;20057;-56
2023/09/03 09:53:00;;;;;;;1.52;1.20;;;;;;;;;;5016469;28;20087;-60
2023/09/03 09:55:29;;;;;;;1.00;0.88;;;;;;;;;;5022393;28;20056;-60
2023/09/03 09:57:56;;;;;;;1.15;1.05;;;;;;;;;;5017220;28;20053;-60
2023/09/03 10:00:41;;;;;;;1.45;0.90;;;;;;;;;;5026023;28;20056;-58
2023/09/03 10:03:10;;;;;;;0.82;0.70;;;;;;;;;;5026504;28;20548;-58
2023/09/03 10:05:37;;;;;;;0.55;0.55;;;;;;;;;;5026759;28;20629;-58
2023/09/03 10:08:03;;;;;;;0.40;0.40;;;;;;;;;;5026120;28;20045;-58
2023/09/03 10:10:30;;;;;;;0.50;0.50;;;;;;;;;;5026833;28;20405;-58
2023/09/03 10:12:56;;;;;;;1.27;0.70;;;;;;;;;;5027407;28;20474;-58
2023/09/03 10:15:23;;;;;;;1.30;0.80;;;;;;;;;;5026236;28;20041;-58
2023/09/03 10:17:52;;;;;;;0.60;0.60;;;;;;;;;;5026463;28;20327;-65
2023/09/03 10:20:19;;;;;;;0.68;0.60;;;;;;;;;;5025632;28;20041;-57
2023/09/03 10:22:46;;;;;;;1.00;0.60;;;;;;;;;;5025498;28;20087;-57
2023/09/03 10:25:14;;;;;;;0.50;0.50;;;;;;;;;;5025784;28;20080;-56
2023/09/03 10:27:45;;;;;;;0.73;0.60;;;;;;;;;;5020458;28;20041;-58
2023/09/03 10:30:12;;;;;;;1.07;0.70;;;;;;;;;;5026547;28;20498;-58
2023/09/03 10:32:38;;;;;;;0.52;0.52;;;;;;;;;;5024700;28;20331;-57
2023/09/03 10:35:09;;;;;;;0.90;0.60;;;;;;;;;;5025532;28;20041;-57
2023/09/03 10:37:36;;;;;;;1.17;0.50;;;;;;;;;;5022923;28;20045;-58
2023/09/03 10:40:20;;;;;;;0.80;0.65;;;;;;;;;;5025955;28;20042;-57
2023/09/03 10:42:46;;;;;;;0.50;0.50;;;;;;;;;;5023805;28;20051;-57
2023/09/03 10:45:13;;;;;;;0.50;0.50;;;;;;;;;;5016307;28;20103;-57
2023/09/03 10:47:57;;;;;;;0.60;0.50;;;;;;;;;;5018977;28;20073;-57
2023/09/03 10:50:40;;;;;;;0.30;0.30;;;;;;;;;;5017711;28;20053;-57
2023/09/03 10:53:07;;;;;;;0.50;0.50;;;;;;;;;;5023498;28;20477;-58
2023/09/03 10:55:33;;;;;;;1.10;0.70;;;;;;;;;;5022254;28;20404;-58
2023/09/03 10:58:11;;;;;;;0.40;0.38;;;;;;;;;;5023534;28;20069;-58
2023/09/03 11:00:37;;;;;;;0.80;0.80;;;;;;;;;;5023574;28;20033;-59
2023/09/03 11:03:21;;;;;;;0.60;0.60;;;;;;;;;;5020293;28;20036;-59
2023/09/03 11:06:06;;;;;;;0.40;0.40;;;;;;;;;;5024273;28;20048;-59
2023/09/03 11:08:34;;;;;;;0.95;0.50;;;;;;;;;;5024480;28;20037;-59
2023/09/03 11:11:00;;;;;;;1.00;0.73;;;;;;;;;;5022997;28;20037;-59
2023/09/03 11:13:28;;;;;;;0.30;0.30;;;;;;;;;;5025675;28;20474;-59
2023/09/03 11:15:58;;;;;;;0.30;0.30;;;;;;;;;;5025080;28;20090;-60
2023/09/03 11:18:27;;;;;;;1.30;0.55;;;;;;;;;;5025105;28;20042;-59
2023/09/03 11:20:55;;;;;;;0.60;0.60;;;;;;;;;;5025165;28;20064;-59
2023/09/03 11:23:22;;;;;;;0.50;0.50;;;;;;;;;;5025705;28;20547;-60
2023/09/03 11:25:48;;;;;;;0.73;0.55;;;;;;;;;;5025052;28;20045;-60
2023/09/03 11:28:14;;;;;;;0.68;0.63;;;;;;;;;;5026055;28;20088;-59
2023/09/03 11:30:44;;;;;;;0.40;0.40;;;;;;;;;;5024144;28;20046;-59
2023/09/03 11:33:28;;;;;;;1.13;0.88;;;;;;;;;;5024806;28;20077;-59
2023/09/03 11:35:55;;;;;;;0.50;0.50;;;;;;;;;;5020709;28;20041;-59
2023/09/03 11:38:24;;;;;;;1.10;1.00;;;;;;;;;;5024867;28;20045;-59
2023/09/03 11:40:54;;;;;;;2.17;1.13;;;;;;;;;;5025419;28;20051;-60
2023/09/03 11:43:20;;;;;;;0.77;0.77;;;;;;;;;;5025428;28;20050;-60
2023/09/03 11:45:46;;;;;;;0.60;0.60;;;;;;;;;;5024563;28;20056;-60
2023/09/03 11:48:12;;;;;;;0.50;0.50;;;;;;;;;;5025292;28;20064;-59
2023/09/03 11:50:38;;;;;;;1.27;0.52;;;;;;;;;;5025305;28;20117;-59
2023/09/03 11:53:05;;;;;;;0.60;0.60;;;;;;;;;;5025589;28;20549;-60
2023/09/03 11:55:32;;;;;;;0.77;0.70;;;;;;;;;;5025463;28;20034;-59
2023/09/03 11:58:00;;;;;;;0.75;0.50;;;;;;;;;;5025203;28;20048;-59
2023/09/03 12:00:27;;;;;;;1.25;0.50;;;;;;;;;;5021205;28;20033;-60
2023/09/03 12:02:54;;;;;;;0.50;0.30;;;;;;;;;;5028450;28;20041;-59
2023/09/03 12:05:20;;;;;;;1.27;0.50;;;;;;;;;;5024639;28;20508;-60
2023/09/03 12:07:46;;;;;;;0.80;0.50;;;;;;;;;;5028116;28;20045;-59
2023/09/03 12:10:17;;;;;;;0.47;0.47;;;;;;;;;;5027711;28;20069;-60
2023/09/03 12:12:43;;;;;;;0.38;0.38;;;;;;;;;;5026811;28;20041;-60
2023/09/03 12:15:22;;;;;;;0.30;0.30;;;;;;;;;;5027962;28;20512;-59
2023/09/03 12:17:48;;;;;;;0.20;0.20;;;;;;;;;;5028390;28;20115;-60
2023/09/03 12:20:43;;;;;;;0.40;0.20;;;;;;;;;;5027723;28;20099;-59
2023/09/03 12:23:16;;;;;;;0.32;0.30;;;;;;;;;;5026919;28;20076;-60
2023/09/03 12:25:43;;;;;;;0.73;0.40;;;;;;;;;;5029096;28;20068;-60
2023/09/03 12:28:09;;;;;;;0.50;0.35;;;;;;;;;;5017609;28;20053;-60
2023/09/03 12:30:57;;;;;;;0.52;0.30;;;;;;;;;;5026626;28;20047;-59
2023/09/03 12:33:50;;;;;;;0.40;0.40;;;;;;;;;;5025112;28;20045;-60
2023/09/03 12:36:18;;;;;;;0.75;0.60;;;;;;;;;;5028132;28;20064;-60
2023/09/03 12:38:53;;;;;;;0.82;0.50;;;;;;;;;;5020196;28;20049;-59
2023/09/03 12:41:19;;;;;;;0.30;0.30;;;;;;;;;;5028217;28;20038;-60
2023/09/03 12:43:45;;;;;;;0.43;0.30;;;;;;;;;;5028575;28;20037;-59
2023/09/03 12:46:11;;;;;;;0.35;0.30;;;;;;;;;;5026997;28;20428;-60
2023/09/03 12:48:37;;;;;;;0.20;0.20;;;;;;;;;;5027743;28;20111;-59
2023/09/03 12:51:04;;;;;;;0.45;0.40;;;;;;;;;;5028038;28;20140;-60
2023/09/03 12:53:30;;;;;;;0.30;0.30;;;;;;;;;;5028590;28;20099;-60
2023/09/03 12:55:56;;;;;;;0.50;0.40;;;;;;;;;;5024862;28;20037;-59
2023/09/03 12:58:22;;;;;;;0.38;0.38;;;;;;;;;;5028439;28;20048;-59
2023/09/03 13:00:49;;;;;;;0.70;0.43;;;;;;;;;;5028413;28;20080;-60
2023/09/03 13:03:15;;;;;;;0.40;0.40;;;;;;;;;;5027156;28;20718;-59
2023/09/03 13:05:41;;;;;;;0.20;0.20;;;;;;;;;;5024857;28;20042;-60
2023/09/03 13:08:07;;;;;;;0.55;0.50;;;;;;;;;;5020916;28;20045;-59
2023/09/03 13:10:33;;;;;;;0.20;0.20;;;;;;;;;;5026684;28;20096;-59
2023/09/03 13:12:59;;;;;;;0.20;0.20;;;;;;;;;;5028025;28;20041;-60
2023/09/03 13:15:25;;;;;;;0.20;0.20;;;;;;;;;;5028277;28;20045;-59
2023/09/03 13:17:51;;;;;;;0.22;0.20;;;;;;;;;;5022168;28;20037;-59
2023/09/03 13:20:17;;;;;;;0.20;0.20;;;;;;;;;;5027899;28;20049;-59
2023/09/03 13:22:43;;;;;;;0.40;0.40;;;;;;;;;;5028060;28;20037;-60
2023/09/03 13:25:10;;;;;;;0.32;0.30;;;;;;;;;;5027593;28;20037;-59
2023/09/03 13:27:36;;;;;;;0.20;0.20;;;;;;;;;;5028048;28;20041;-60
2023/09/03 13:30:02;;;;;;;0.20;0.20;;;;;;;;;;5023448;28;20121;-59
2023/09/03 13:32:28;;;;;;;0.10;0.10;;;;;;;;;;5024830;28;20501;-59
2023/09/03 13:34:54;;;;;;;0.35;0.35;;;;;;;;;;5027789;28;20037;-59
2023/09/03 13:37:20;;;;;;;0.30;0.30;;;;;;;;;;5021647;28;20060;-59
2023/09/03 13:39:46;;;;;;;0.20;0.20;;;;;;;;;;5022135;28;20045;-59
2023/09/03 13:42:12;;;;;;;0.47;0.30;;;;;;;;;;5026935;28;20042;-59
2023/09/03 13:44:38;;;;;;;0.17;0.17;;;;;;;;;;5023237;28;20508;-59
2023/09/03 13:47:05;;;;;;;0.10;0.10;;;;;;;;;;5026689;28;20132;-60
2023/09/03 13:49:31;;;;;;;0.43;0.28;;;;;;;;;;5026415;28;20080;-59
2023/09/03 13:51:57;;;;;;;0.43;0.20;;;;;;;;;;5026509;28;20500;-59
2023/09/03 13:54:23;;;;;;;0.38;0.10;;;;;;;;;;5026978;28;20069;-59
2023/09/03 13:56:49;;;;;;;0.20;0.20;;;;;;;;;;5026396;28;20084;-59
2023/09/03 13:59:15;;;;;;;0.20;0.20;;;;;;;;;;5025992;28;20528;-59
2023/09/03 14:01:41;;;;;;;0.30;0.30;;;;;;;;;;5024426;28;20107;-59
2023/09/03 14:04:07;;;;;;;0.70;0.30;;;;;;;;;;5024210;28;20033;-59
2023/09/03 14:06:34;;;;;;;0.20;0.20;;;;;;;;;;5018719;28;20778;-60
2023/09/03 14:09:00;;;;;;;0.52;0.20;;;;;;;;;;5026348;28;20040;-60
2023/09/03 14:11:26;;;;;;;0.30;0.30;;;;;;;;;;5026844;28;20068;-59
2023/09/03 14:13:52;;;;;;;0.15;0.15;;;;;;;;;;5025698;28;20489;-59
2023/09/03 14:16:18;;;;;;;0.10;0.10;;;;;;;;;;5026282;28;20152;-59
2023/09/03 14:18:44;;;;;;;0.30;0.30;;;;;;;;;;5025911;28;20084;-59
2023/09/03 14:21:11;;;;;;;0.35;0.30;;;;;;;;;;5026000;28;20088;-59
2023/09/03 14:23:37;;;;;;;0.70;0.50;;;;;;;;;;5025141;28;20098;-60
2023/09/03 14:26:03;;;;;;;0.17;0.17;;;;;;;;;;5024402;28;20033;-60
2023/09/03 14:28:29;;;;;;;0.15;0.15;;;;;;;;;;5024663;28;20557;-60
2023/09/03 14:30:59;;;;;;;0.20;0.20;;;;;;;;;;5024009;28;20041;-60
2023/09/03 14:33:25;;;;;;;0.30;0.30;;;;;;;;;;5025286;28;20098;-59
2023/09/03 14:35:52;;;;;;;0.28;0.20;;;;;;;;;;5024672;28;20041;-59
2023/09/03 14:38:18;;;;;;;0.20;0.20;;;;;;;;;;5025059;28;20045;-60
2023/09/03 14:40:49;;;;;;;0.30;0.30;;;;;;;;;;5023671;28;20778;-59
2023/09/03 14:43:15;;;;;;;0.25;0.20;;;;;;;;;;5024595;28;20056;-59
2023/09/03 14:45:41;;;;;;;0.20;0.20;;;;;;;;;;5023661;28;20045;-60